Weather history for 0404

Weather History For Prescott AZ

This page updates 5 minutes after midnight. GMT -7

Station: KPRC0 Rows: 26

Return to today's weather
Year Date Temp (°F) Tmin (°F) Tmax (°F) RH% Prcp Snow Wind Gust Pres Sun Cloud
2000 2000-04-04 59.0 41.0 77.0 38 11.1 30.10 0
2001 2001-04-04 51.6 41.0 62.1 52 17.5 29.83 2
2002 2002-04-04 59.5 42.8 75.2 21 11.0 29.95 0
2003 2003-04-04 43.5 30.2 55.4 36 16.3 29.89 0
2004 2004-04-04 46.8 67 6.4 29.91 5
2005 2005-04-04 49.6 42.1 57.0 30 0.0 24.9 29.79 0
2006 2006-04-04 58.6 46.9 69.1 45 0.0 14.6 29.86 2
2007 2007-04-04 59.4 41.0 77.0 26 0.0 9.3 30.01 0
2008 2008-04-04 48.9 28.9 66.9 25 0.0 7.7 30.01 1
2009 2009-04-04 40.6 28.0 53.1 35 0.0 14.3 29.87 1
2010 2010-04-04 51.8 35.1 64.0 34 0.0 17.3 29.81 0
2011 2011-04-04 50.5 33.1 68.0 23 0.0 9.4 30.06 0
2012 2012-04-04 55.2 37.9 69.1 28 0.0 9.0 29.87 0
2013 2013-04-04 57.4 39.9 73.0 30 0.0 9.5 30.00 0
2014 2014-04-04 47.5 33.1 61.0 28 0.0 11.2 29.88 0
2015 2015-04-04 54.9 36.0 70.0 22 0.0 11.5 29.91 0
2016 2016-04-04 57.9 39.9 73.9 22 0.0 11.5 30.04 0
2017 2017-04-04 45.7 34.0 57.9 52 14.8 29.96 0
2018 2018-04-04 57.4 42.1 71.1 31 0.0 11.9 29.95 0
2019 2019-04-04 51.6 37.9 63.0 46 0.0 13.9 29.97 0
2020 2020-04-04 50.7 36.0 62.1 41 0.0 13.8 29.77 0
2021 2021-04-04 62.6 45.0 80.1 23 0.0 12.3 29.95 0
2022 2022-04-04 58.1 42.1 71.1 35 0.0 10.9 29.78 0
2023 2023-04-04 34.2 28.0 43.0 33 22.9 29.81 2
2024 2024-04-04 54.1 36.0 69.1 40 0.0 19.0 29.79 0
2025 2025-04-04 36.1 24.1 48.9 75 10.0 29.98 2
Average Low 36.9
Average High 65.5

Daily High / Low by Year (04/04)

Barometric Pressure by Year (04/04)

Weather data provided by Meteostat